Terminal Aerodrome Forecast
Issued by NWS

Home | Current Version | Previous Version | Graphics & Text | Print | Product List | Glossary On
Versions: 1 2 3 4 5 6 7 8 9 10 11 12 13 14 15 16 17 18 19 20 21
260
FTUS41 KCLE 050718 AAB
TAFFDY
TAF AMD
KFDY 050718Z 0507/0606 25012G22KT P6SM OVC012
     FM051000 25012KT P6SM SCT008 OVC015
     FM051500 24008KT P6SM OVC015
     FM052000 VRB04KT P6SM BKN035=

USA.gov is the U.S. government's official web portal to all federal, state and local government web resources and services.